createdAt,value
2019-01-31T00:02:32.386Z,15.70
2019-01-31T00:05:34.545Z,15.70
2019-01-31T00:08:46.070Z,15.70
2019-01-31T00:11:38.246Z,15.70
2019-01-31T00:14:26.903Z,15.70
2019-01-31T00:17:30.796Z,15.70
2019-01-31T00:20:20.245Z,15.60
2019-01-31T00:23:42.471Z,15.60
2019-01-31T00:26:32.843Z,15.60
2019-01-31T00:29:44.463Z,15.60
2019-01-31T00:33:09.921Z,15.50
2019-01-31T00:35:58.850Z,15.50
2019-01-31T00:39:18.200Z,15.60
2019-01-31T00:42:16.672Z,15.60
2019-01-31T00:45:22.953Z,15.70
2019-01-31T00:48:24.228Z,15.70
2019-01-31T00:51:37.561Z,15.70
2019-01-31T00:54:53.413Z,15.70
2019-01-31T00:58:07.418Z,15.70
2019-01-31T01:00:50.184Z,15.70
2019-01-31T01:04:03.860Z,15.70
2019-01-31T01:07:28.619Z,15.60
2019-01-31T01:10:13.091Z,15.60
2019-01-31T01:13:03.734Z,15.50
2019-01-31T01:16:08.561Z,15.50
2019-01-31T01:19:14.800Z,15.50
2019-01-31T01:22:25.209Z,15.60
2019-01-31T01:25:29.807Z,15.60
2019-01-31T01:28:26.862Z,15.60
2019-01-31T01:31:16.694Z,15.70
2019-01-31T01:34:13.477Z,15.70
2019-01-31T01:37:16.850Z,15.70
2019-01-31T01:40:22.481Z,15.70
2019-01-31T01:43:07.648Z,15.70
2019-01-31T01:46:07.299Z,15.70
2019-01-31T01:49:04.516Z,15.70
2019-01-31T01:52:23.528Z,15.60
2019-01-31T01:55:07.552Z,15.60
2019-01-31T01:58:17.805Z,15.50
2019-01-31T02:01:30.090Z,15.60
2019-01-31T02:04:52.342Z,15.60
2019-01-31T02:07:52.554Z,15.60
2019-01-31T02:10:57.246Z,15.60
2019-01-31T02:14:09.602Z,15.60
2019-01-31T02:17:08.467Z,15.60
2019-01-31T02:20:13.786Z,15.70
2019-01-31T02:23:30.398Z,15.70
2019-01-31T02:26:36.030Z,15.70
2019-01-31T02:29:38.164Z,15.70
2019-01-31T02:32:59.203Z,15.70
2019-01-31T02:35:53.079Z,15.70
2019-01-31T02:39:09.698Z,15.60
2019-01-31T02:42:22.306Z,15.60
2019-01-31T02:45:38.317Z,15.60
2019-01-31T02:48:56.084Z,15.50
2019-01-31T02:52:15.279Z,15.50
2019-01-31T02:55:30.114Z,15.50
2019-01-31T02:58:29.811Z,15.50
2019-01-31T03:01:21.378Z,15.60
2019-01-31T03:04:22.482Z,15.60
2019-01-31T03:07:32.843Z,15.60
2019-01-31T03:10:24.822Z,15.70
2019-01-31T03:13:21.324Z,15.70
2019-01-31T03:16:28.339Z,15.70
2019-01-31T03:19:41.703Z,15.70
2019-01-31T03:22:28.981Z,15.70
2019-01-31T03:25:51.546Z,15.70
2019-01-31T03:28:57.666Z,15.60
2019-01-31T03:31:48.450Z,15.60
2019-01-31T03:34:47.729Z,15.50
2019-01-31T03:37:54.434Z,15.50
2019-01-31T03:41:14.165Z,15.50
2019-01-31T03:43:58.079Z,15.50
2019-01-31T03:47:14.215Z,15.50
2019-01-31T03:50:02.689Z,15.60
2019-01-31T03:53:08.526Z,15.60
2019-01-31T03:56:33.634Z,15.60
2019-01-31T03:59:13.868Z,15.70
2019-01-31T04:02:18.675Z,15.70
2019-01-31T04:05:24.885Z,15.70
2019-01-31T04:07:53.922Z,15.60
2019-01-31T04:10:22.879Z,15.70
2019-01-31T04:12:52.004Z,15.60
2019-01-31T04:15:21.039Z,15.60
2019-01-31T04:17:50.103Z,15.60
2019-01-31T04:20:19.255Z,15.50
2019-01-31T04:22:48.342Z,15.50
2019-01-31T04:25:17.329Z,15.50
2019-01-31T04:27:46.374Z,15.50
2019-01-31T04:30:15.949Z,15.50
2019-01-31T04:32:45.050Z,15.50
2019-01-31T04:35:14.113Z,15.50
2019-01-31T04:37:43.164Z,15.50
2019-01-31T04:40:12.200Z,15.60
2019-01-31T04:42:41.241Z,15.60
2019-01-31T04:45:10.301Z,15.70
2019-01-31T04:47:39.358Z,15.70
2019-01-31T04:50:10.589Z,15.70
2019-01-31T04:52:39.721Z,15.70
2019-01-31T04:55:08.788Z,15.60
2019-01-31T04:57:37.821Z,15.60
2019-01-31T05:00:07.868Z,15.60
2019-01-31T05:02:36.982Z,15.60
2019-01-31T05:05:06.834Z,15.60
2019-01-31T05:07:35.862Z,15.50
2019-01-31T05:10:06.477Z,15.50
2019-01-31T05:12:35.523Z,15.50
2019-01-31T05:15:05.339Z,15.50
2019-01-31T05:17:34.493Z,15.50
2019-01-31T05:20:03.617Z,15.50
2019-01-31T05:22:32.692Z,15.50
2019-01-31T05:25:01.680Z,15.50
2019-01-31T05:27:30.671Z,15.60
2019-01-31T05:29:59.800Z,15.60
2019-01-31T05:32:28.851Z,15.60
2019-01-31T05:34:57.888Z,15.60
2019-01-31T05:37:26.942Z,15.70
2019-01-31T05:39:55.992Z,15.70
2019-01-31T05:42:25.223Z,15.70
2019-01-31T05:44:54.266Z,15.80
2019-01-31T05:47:23.388Z,15.90
2019-01-31T05:49:52.437Z,15.90
2019-01-31T05:52:21.487Z,16.00
2019-01-31T05:54:50.530Z,16.00
2019-01-31T05:57:19.860Z,16.10
2019-01-31T05:59:48.995Z,16.20
2019-01-31T06:02:18.108Z,16.30
2019-01-31T06:04:47.135Z,16.30
2019-01-31T06:07:18.554Z,16.40
2019-01-31T06:09:47.574Z,16.40
2019-01-31T06:12:16.566Z,16.50
2019-01-31T06:14:45.586Z,16.50
2019-01-31T06:17:14.886Z,16.40
2019-01-31T06:19:43.926Z,16.50
2019-01-31T06:22:12.970Z,16.50
2019-01-31T06:24:41.932Z,16.50
2019-01-31T06:27:10.983Z,16.50
2019-01-31T06:29:39.962Z,16.50
2019-01-31T06:32:09.008Z,16.50
2019-01-31T06:34:38.133Z,16.50
2019-01-31T06:37:07.139Z,16.60
2019-01-31T06:39:36.163Z,16.50
2019-01-31T06:42:05.252Z,16.50
2019-01-31T06:44:34.333Z,16.50
2019-01-31T06:47:03.413Z,16.50
2019-01-31T06:49:32.458Z,16.40
2019-01-31T06:52:01.562Z,16.40
2019-01-31T06:54:30.505Z,16.30
2019-01-31T06:56:59.472Z,16.30
2019-01-31T06:59:28.474Z,16.20
2019-01-31T07:01:57.473Z,16.20
2019-01-31T07:04:26.530Z,16.10
2019-01-31T07:06:55.606Z,16.10
2019-01-31T07:09:24.741Z,16.10
2019-01-31T07:11:53.829Z,16.00
2019-01-31T07:14:22.931Z,16.00
2019-01-31T07:16:51.984Z,15.90
2019-01-31T07:19:21.014Z,15.90
2019-01-31T07:21:50.145Z,15.90
2019-01-31T07:24:19.206Z,15.90
2019-01-31T07:26:48.271Z,15.90
2019-01-31T07:29:17.374Z,15.90
2019-01-31T07:31:46.327Z,15.90
2019-01-31T07:34:15.438Z,15.90
2019-01-31T07:36:44.480Z,15.90
2019-01-31T07:39:13.630Z,15.90
2019-01-31T07:41:42.674Z,15.90
2019-01-31T07:44:11.724Z,15.90
2019-01-31T07:46:40.767Z,15.90
2019-01-31T07:49:09.831Z,15.90
2019-01-31T07:51:38.897Z,15.90
2019-01-31T07:54:08.025Z,15.90
2019-01-31T07:56:37.067Z,15.80
2019-01-31T07:59:06.049Z,15.80
2019-01-31T08:01:35.123Z,15.80
2019-01-31T08:04:04.255Z,15.80
2019-01-31T08:06:33.247Z,15.80
2019-01-31T08:09:02.364Z,15.70
2019-01-31T08:11:31.426Z,15.70
2019-01-31T08:14:00.398Z,15.70
2019-01-31T08:16:29.518Z,15.80
2019-01-31T08:18:58.580Z,15.80
2019-01-31T08:21:27.615Z,15.80
2019-01-31T08:23:56.653Z,15.80
2019-01-31T08:26:25.725Z,15.90
2019-01-31T08:28:54.789Z,15.90
2019-01-31T08:31:23.863Z,15.90
2019-01-31T08:33:52.898Z,15.90
2019-01-31T08:36:21.917Z,15.90
2019-01-31T08:38:50.947Z,15.90
2019-01-31T08:41:19.923Z,15.90
2019-01-31T08:43:48.893Z,15.90
2019-01-31T08:46:17.919Z,15.80
2019-01-31T08:48:46.970Z,15.80
2019-01-31T08:51:16.018Z,15.80
2019-01-31T08:53:45.094Z,15.80
2019-01-31T08:56:14.114Z,15.70
2019-01-31T08:58:43.103Z,15.70
2019-01-31T09:01:12.213Z,15.80
2019-01-31T09:03:41.266Z,15.70
2019-01-31T09:06:10.309Z,15.70
2019-01-31T09:08:39.397Z,15.80
2019-01-31T09:11:08.423Z,15.80
2019-01-31T09:13:38.172Z,15.80
2019-01-31T09:16:07.314Z,15.80
2019-01-31T09:18:36.309Z,15.90
2019-01-31T09:21:20.870Z,15.80
2019-01-31T09:24:46.350Z,15.80
2019-01-31T09:27:46.848Z,15.80
2019-01-31T09:30:43.530Z,15.70
2019-01-31T09:34:00.237Z,15.70
2019-01-31T09:36:56.158Z,15.70
2019-01-31T09:40:07.258Z,15.60
2019-01-31T09:43:07.714Z,15.70
2019-01-31T09:45:59.463Z,15.60
2019-01-31T09:48:43.825Z,15.70
2019-01-31T09:51:41.187Z,15.70
2019-01-31T09:54:53.001Z,15.70
2019-01-31T09:57:53.653Z,15.70
2019-01-31T10:00:49.242Z,15.80
2019-01-31T10:04:20.986Z,15.80
2019-01-31T10:07:25.313Z,15.80
2019-01-31T10:10:24.203Z,15.80
2019-01-31T10:13:40.788Z,15.80
2019-01-31T10:16:41.124Z,15.70
2019-01-31T10:19:47.766Z,15.80
2019-01-31T10:22:59.613Z,15.70
2019-01-31T10:26:10.506Z,15.70
2019-01-31T10:29:30.019Z,15.70
2019-01-31T10:32:58.274Z,15.70
2019-01-31T10:36:01.564Z,15.70
2019-01-31T10:39:06.337Z,15.70
2019-01-31T10:42:09.498Z,15.80
2019-01-31T10:45:00.556Z,15.80
2019-01-31T10:48:11.972Z,15.80
2019-01-31T10:50:58.602Z,15.80
2019-01-31T10:53:56.163Z,15.80
2019-01-31T10:57:09.413Z,15.80
2019-01-31T11:00:27.865Z,15.70
2019-01-31T11:03:19.899Z,15.80
2019-01-31T11:06:33.997Z,15.70
2019-01-31T11:09:35.015Z,15.70
2019-01-31T11:12:39.075Z,15.70
2019-01-31T11:15:38.123Z,15.70
2019-01-31T11:18:51.598Z,15.70
2019-01-31T11:21:57.650Z,15.70
2019-01-31T11:24:49.434Z,15.70
2019-01-31T11:27:53.463Z,15.70
2019-01-31T11:30:47.746Z,15.80
2019-01-31T11:33:54.610Z,15.80
2019-01-31T11:37:05.459Z,15.80
2019-01-31T11:40:09.649Z,15.80
2019-01-31T11:43:22.977Z,15.80
2019-01-31T11:46:15.392Z,15.80
2019-01-31T11:49:21.670Z,15.80
2019-01-31T11:52:15.734Z,15.70
2019-01-31T11:54:59.130Z,15.70
2019-01-31T11:57:53.506Z,15.70
2019-01-31T12:00:24.528Z,15.70
2019-01-31T12:02:55.193Z,15.70
2019-01-31T12:05:24.325Z,15.70
2019-01-31T12:07:54.737Z,15.70
2019-01-31T12:10:23.950Z,15.70
2019-01-31T12:12:53.187Z,15.70
2019-01-31T12:15:22.227Z,15.80
2019-01-31T12:17:51.293Z,15.80
2019-01-31T12:20:20.403Z,15.80
2019-01-31T12:22:49.463Z,15.90
2019-01-31T12:25:18.785Z,15.80
2019-01-31T12:27:47.826Z,15.80
2019-01-31T12:30:19.833Z,15.80
2019-01-31T12:32:48.882Z,15.80
2019-01-31T12:35:17.850Z,15.80
2019-01-31T12:37:46.817Z,15.80
2019-01-31T12:40:16.973Z,15.70
2019-01-31T12:42:46.031Z,15.70
2019-01-31T12:45:16.573Z,15.70
2019-01-31T12:47:45.609Z,15.70
2019-01-31T12:50:17.481Z,15.70
2019-01-31T12:52:46.554Z,15.70
2019-01-31T12:55:15.524Z,15.70
2019-01-31T12:57:44.582Z,15.70
2019-01-31T13:00:22.066Z,15.80
2019-01-31T13:02:51.110Z,15.80
2019-01-31T13:05:20.178Z,15.90
2019-01-31T13:07:50.526Z,15.80
2019-01-31T13:10:19.514Z,15.90
2019-01-31T13:12:49.179Z,15.90
2019-01-31T13:15:18.249Z,15.80
2019-01-31T13:17:47.385Z,15.80
2019-01-31T13:20:18.677Z,15.80
2019-01-31T13:22:48.056Z,15.80
2019-01-31T13:25:17.200Z,15.80
2019-01-31T13:27:46.241Z,15.70
2019-01-31T13:30:17.086Z,15.70
2019-01-31T13:32:46.131Z,15.70
2019-01-31T13:35:15.381Z,15.70
2019-01-31T13:37:47.128Z,15.70
2019-01-31T13:40:18.260Z,15.70
2019-01-31T13:42:47.337Z,15.70
2019-01-31T13:45:18.378Z,15.70
2019-01-31T13:47:48.431Z,15.80
2019-01-31T13:50:17.538Z,15.80
2019-01-31T13:52:46.603Z,15.80
2019-01-31T13:55:21.206Z,15.80
2019-01-31T13:57:51.794Z,15.80
2019-01-31T14:00:20.923Z,15.80
2019-01-31T14:02:49.926Z,15.80
2019-01-31T14:05:19.068Z,15.80
2019-01-31T14:07:48.071Z,15.70
2019-01-31T14:10:19.529Z,15.70
2019-01-31T14:12:48.573Z,15.70
2019-01-31T14:15:33.117Z,15.70
2019-01-31T14:17:55.617Z,15.60
2019-01-31T14:20:25.996Z,15.60
2019-01-31T14:22:55.047Z,15.60
2019-01-31T14:25:24.028Z,15.60
2019-01-31T14:27:53.083Z,15.70
2019-01-31T14:30:27.122Z,15.70
2019-01-31T14:32:56.574Z,15.70
2019-01-31T14:35:26.730Z,15.70
2019-01-31T14:37:56.853Z,15.70
2019-01-31T14:40:26.089Z,15.80
2019-01-31T14:42:55.145Z,15.80
2019-01-31T14:45:24.198Z,15.80
2019-01-31T14:47:55.740Z,15.80
2019-01-31T14:50:31.305Z,15.80
2019-01-31T14:53:00.342Z,15.80
2019-01-31T14:55:29.428Z,15.70
2019-01-31T14:57:59.632Z,15.70
2019-01-31T15:00:30.218Z,15.60
2019-01-31T15:02:59.264Z,15.60
2019-01-31T15:05:28.790Z,15.60
2019-01-31T15:07:57.787Z,15.60
2019-01-31T15:10:28.020Z,15.60
2019-01-31T15:12:57.067Z,15.60
2019-01-31T15:15:26.111Z,15.60
2019-01-31T15:17:55.213Z,15.70
2019-01-31T15:20:37.526Z,15.80
2019-01-31T15:23:00.061Z,15.90
2019-01-31T15:25:29.124Z,16.00
2019-01-31T15:27:59.169Z,16.20
2019-01-31T15:30:30.310Z,16.30
2019-01-31T15:32:59.537Z,16.50
2019-01-31T15:35:28.661Z,16.60
2019-01-31T15:37:57.725Z,16.70
2019-01-31T15:40:35.066Z,16.80
2019-01-31T15:43:04.326Z,17.00
2019-01-31T15:45:33.463Z,17.10
2019-01-31T15:48:02.695Z,17.30
2019-01-31T15:50:31.733Z,17.40
2019-01-31T15:53:00.797Z,17.50
2019-01-31T15:55:29.862Z,17.60
2019-01-31T15:57:58.994Z,17.70
2019-01-31T16:00:39.193Z,17.80
2019-01-31T16:03:09.992Z,18.00
2019-01-31T16:05:39.037Z,18.10
2019-01-31T16:08:08.269Z,18.20
2019-01-31T16:10:37.398Z,18.30
2019-01-31T16:13:06.641Z,18.40
2019-01-31T16:15:35.748Z,18.50
2019-01-31T16:18:05.197Z,18.60
2019-01-31T16:20:34.252Z,18.70
2019-01-31T16:23:03.275Z,18.80
2019-01-31T16:25:32.353Z,18.90
2019-01-31T16:28:01.475Z,19.00
2019-01-31T16:30:30.462Z,19.00
2019-01-31T16:32:59.674Z,19.10
2019-01-31T16:35:28.727Z,19.20
2019-01-31T16:37:57.786Z,19.20
2019-01-31T16:40:26.845Z,19.30
2019-01-31T16:42:55.933Z,19.30
2019-01-31T16:45:25.238Z,19.40
2019-01-31T16:47:54.271Z,19.40
2019-01-31T16:50:23.339Z,19.40
2019-01-31T16:52:52.305Z,19.50
2019-01-31T16:55:23.488Z,19.50
2019-01-31T16:57:52.576Z,19.60
2019-01-31T17:00:24.132Z,19.60
2019-01-31T17:02:53.103Z,19.70
2019-01-31T17:05:26.002Z,19.70
2019-01-31T17:07:55.038Z,19.80
2019-01-31T17:10:25.030Z,19.80
2019-01-31T17:12:54.046Z,19.90
2019-01-31T17:15:23.021Z,19.90
2019-01-31T17:17:52.093Z,20.00
2019-01-31T17:20:27.985Z,20.00
2019-01-31T17:22:57.042Z,20.10
2019-01-31T17:25:26.347Z,20.10
2019-01-31T17:27:55.394Z,20.20
2019-01-31T17:30:25.784Z,20.20
2019-01-31T17:32:54.849Z,20.10
2019-01-31T17:35:23.904Z,19.90
2019-01-31T17:37:52.953Z,19.90
2019-01-31T17:40:24.642Z,19.80
2019-01-31T17:42:53.762Z,19.90
2019-01-31T17:45:29.977Z,19.90
2019-01-31T17:47:53.537Z,19.80
2019-01-31T17:50:23.753Z,19.80
2019-01-31T17:52:52.787Z,19.80
2019-01-31T17:55:22.054Z,19.80
2019-01-31T17:57:51.077Z,19.90
2019-01-31T18:00:33.240Z,19.90
2019-01-31T18:03:02.381Z,19.90
2019-01-31T18:05:31.549Z,19.90
2019-01-31T18:08:00.595Z,19.90
2019-01-31T18:10:31.130Z,19.90
2019-01-31T18:13:00.222Z,19.90
2019-01-31T18:15:29.322Z,19.90
2019-01-31T18:17:58.277Z,19.90
2019-01-31T18:20:27.338Z,19.80
2019-01-31T18:22:56.393Z,19.80
2019-01-31T18:25:25.504Z,19.80
2019-01-31T18:27:54.558Z,19.80
2019-01-31T18:30:25.411Z,19.70
2019-01-31T18:32:54.444Z,19.70
2019-01-31T18:35:23.498Z,19.70
2019-01-31T18:37:52.501Z,19.70
2019-01-31T18:40:23.852Z,19.60
2019-01-31T18:42:52.897Z,19.60
2019-01-31T18:45:23.590Z,19.60
2019-01-31T18:47:52.594Z,19.60
2019-01-31T18:50:23.982Z,19.60
2019-01-31T18:52:52.966Z,19.60
2019-01-31T18:55:21.987Z,19.50
2019-01-31T18:57:51.005Z,19.50
2019-01-31T19:00:25.602Z,19.50
2019-01-31T19:02:54.664Z,19.40
2019-01-31T19:05:23.768Z,19.40
2019-01-31T19:07:52.748Z,19.40
2019-01-31T19:10:23.146Z,19.40
2019-01-31T19:12:52.124Z,19.40
2019-01-31T19:15:21.248Z,19.50
2019-01-31T19:17:50.237Z,19.50
2019-01-31T19:20:21.241Z,19.50
2019-01-31T19:22:50.362Z,19.50
2019-01-31T19:25:19.363Z,19.60
2019-01-31T19:27:48.418Z,19.60
2019-01-31T19:30:20.310Z,19.60
2019-01-31T19:32:49.457Z,19.60
2019-01-31T19:35:18.547Z,19.60
2019-01-31T19:37:47.556Z,19.60
2019-01-31T19:40:19.425Z,19.60
2019-01-31T19:42:48.586Z,19.60
2019-01-31T19:45:30.881Z,19.60
2019-01-31T19:47:59.869Z,19.60
2019-01-31T19:50:30.042Z,19.60
2019-01-31T19:52:59.124Z,19.60
2019-01-31T19:55:28.227Z,19.60
2019-01-31T19:57:57.278Z,19.60
2019-01-31T20:00:26.360Z,19.60
2019-01-31T20:02:55.404Z,19.60
2019-01-31T20:05:24.406Z,19.60
2019-01-31T20:07:53.509Z,19.70
2019-01-31T20:10:24.029Z,19.70
2019-01-31T20:12:53.082Z,19.70
2019-01-31T20:15:22.137Z,19.70
2019-01-31T20:17:51.202Z,19.70
2019-01-31T20:20:21.970Z,19.70
2019-01-31T20:22:51.346Z,19.70
2019-01-31T20:25:20.799Z,19.60
2019-01-31T20:27:49.872Z,19.50
2019-01-31T20:30:20.980Z,19.50
2019-01-31T20:32:50.033Z,19.50
2019-01-31T20:35:19.259Z,19.60
2019-01-31T20:37:48.322Z,19.60
2019-01-31T20:40:19.420Z,19.70
2019-01-31T20:42:48.566Z,19.80
2019-01-31T20:45:17.709Z,19.90
2019-01-31T20:47:46.717Z,19.90
2019-01-31T20:50:21.170Z,20.00
2019-01-31T20:52:50.423Z,20.00
2019-01-31T20:55:19.467Z,20.10
2019-01-31T20:57:48.514Z,20.10
2019-01-31T21:00:29.110Z,20.10
2019-01-31T21:02:58.110Z,20.20
2019-01-31T21:05:27.257Z,20.20
2019-01-31T21:07:56.300Z,20.20
2019-01-31T21:10:26.672Z,20.30
2019-01-31T21:12:55.856Z,20.30
2019-01-31T21:15:24.917Z,20.40
2019-01-31T21:17:54.086Z,20.30
2019-01-31T21:20:26.030Z,20.20
2019-01-31T21:22:53.903Z,20.00
2019-01-31T21:25:22.903Z,19.80
2019-01-31T21:27:51.899Z,19.70
2019-01-31T21:30:30.402Z,19.60
2019-01-31T21:32:59.424Z,19.50
2019-01-31T21:35:29.330Z,19.40
2019-01-31T21:37:58.470Z,19.30
2019-01-31T21:40:31.337Z,19.20
2019-01-31T21:43:00.452Z,19.20
2019-01-31T21:45:29.491Z,19.20
2019-01-31T21:47:58.529Z,19.10
2019-01-31T21:50:28.061Z,19.10
2019-01-31T21:52:57.937Z,19.10
2019-01-31T21:55:29.628Z,19.10
2019-01-31T21:57:58.668Z,19.10
2019-01-31T22:00:30.531Z,19.00
2019-01-31T22:02:59.530Z,19.00
2019-01-31T22:05:28.599Z,19.00
2019-01-31T22:07:57.655Z,18.90
2019-01-31T22:10:26.743Z,18.90
2019-01-31T22:12:55.863Z,18.90
2019-01-31T22:15:26.804Z,18.90
2019-01-31T22:17:59.756Z,18.90
2019-01-31T22:20:26.581Z,18.90
2019-01-31T22:22:55.645Z,18.90
2019-01-31T22:25:24.705Z,18.90
2019-01-31T22:27:53.749Z,18.90
2019-01-31T22:30:27.763Z,18.90
2019-01-31T22:32:56.852Z,18.90
2019-01-31T22:35:26.575Z,18.90
2019-01-31T22:37:55.605Z,18.90
2019-01-31T22:40:26.133Z,18.80
2019-01-31T22:42:55.112Z,18.80
2019-01-31T22:45:24.135Z,18.80
2019-01-31T22:47:53.164Z,18.80
2019-01-31T22:50:22.529Z,18.80
2019-01-31T22:52:51.564Z,18.80
2019-01-31T22:55:21.881Z,18.80
2019-01-31T22:57:50.928Z,18.80
2019-01-31T23:00:43.630Z,18.80
2019-01-31T23:03:12.673Z,18.80
2019-01-31T23:05:41.730Z,18.80
2019-01-31T23:08:10.781Z,18.80
2019-01-31T23:10:41.049Z,18.80
2019-01-31T23:13:10.110Z,18.80
2019-01-31T23:15:39.138Z,18.80
2019-01-31T23:18:08.204Z,18.80
2019-01-31T23:20:37.226Z,18.80
2019-01-31T23:23:06.291Z,18.80
2019-01-31T23:25:40.210Z,18.80
2019-01-31T23:28:06.040Z,18.80
2019-01-31T23:30:35.156Z,18.80
2019-01-31T23:33:04.117Z,18.80
2019-01-31T23:35:33.110Z,18.70
2019-01-31T23:38:02.097Z,18.80
2019-01-31T23:40:31.171Z,18.70
2019-01-31T23:43:00.221Z,18.70
2019-01-31T23:45:29.269Z,18.70
2019-01-31T23:47:58.392Z,18.70
2019-01-31T23:50:27.449Z,18.70
2019-01-31T23:52:56.424Z,18.70
2019-01-31T23:55:25.485Z,18.70
2019-01-31T23:57:54.622Z,18.70
